sensor_id;sensor_type;location;lat;lon;timestamp;temperature;humidity
10986;DHT22;5546;48.714;8.738;2022-11-04T00:01:46;13.30;99.90
10986;DHT22;5546;48.714;8.738;2022-11-04T00:04:14;13.30;99.90
10986;DHT22;5546;48.714;8.738;2022-11-04T00:06:40;13.50;99.90
10986;DHT22;5546;48.714;8.738;2022-11-04T00:09:08;13.50;99.90
10986;DHT22;5546;48.714;8.738;2022-11-04T00:11:34;13.50;99.90
10986;DHT22;5546;48.714;8.738;2022-11-04T00:14:19;13.70;99.80
10986;DHT22;5546;48.714;8.738;2022-11-04T00:16:44;13.70;99.90
10986;DHT22;5546;48.714;8.738;2022-11-04T00:19:29;13.70;99.80
10986;DHT22;5546;48.714;8.738;2022-11-04T00:22:14;13.80;99.90
10986;DHT22;5546;48.714;8.738;2022-11-04T00:24:59;13.80;99.90
10986;DHT22;5546;48.714;8.738;2022-11-04T00:27:43;13.60;99.90
10986;DHT22;5546;48.714;8.738;2022-11-04T00:32:53;13.70;99.90
10986;DHT22;5546;48.714;8.738;2022-11-04T00:35:37;13.60;99.90
10986;DHT22;5546;48.714;8.738;2022-11-04T00:38:02;13.60;99.90
10986;DHT22;5546;48.714;8.738;2022-11-04T00:40:28;13.80;99.70
10986;DHT22;5546;48.714;8.738;2022-11-04T00:42:54;13.80;99.90
10986;DHT22;5546;48.714;8.738;2022-11-04T00:45:19;13.80;99.80
10986;DHT22;5546;48.714;8.738;2022-11-04T00:47:45;13.80;99.90
10986;DHT22;5546;48.714;8.738;2022-11-04T00:50:10;13.80;99.90
10986;DHT22;5546;48.714;8.738;2022-11-04T00:52:36;13.80;99.90
10986;DHT22;5546;48.714;8.738;2022-11-04T00:55:01;13.90;99.80
10986;DHT22;5546;48.714;8.738;2022-11-04T00:57:27;13.50;99.90
10986;DHT22;5546;48.714;8.738;2022-11-04T00:59:52;13.40;99.90
10986;DHT22;5546;48.714;8.738;2022-11-04T01:02:18;13.50;99.90
10986;DHT22;5546;48.714;8.738;2022-11-04T01:04:43;13.80;99.90
10986;DHT22;5546;48.714;8.738;2022-11-04T01:07:10;13.50;99.90
10986;DHT22;5546;48.714;8.738;2022-11-04T01:09:36;13.70;99.90
10986;DHT22;5546;48.714;8.738;2022-11-04T01:12:01;13.70;99.90
10986;DHT22;5546;48.714;8.738;2022-11-04T01:14:27;13.70;99.90
10986;DHT22;5546;48.714;8.738;2022-11-04T01:16:52;13.70;99.80
10986;DHT22;5546;48.714;8.738;2022-11-04T01:19:18;13.60;99.90
10986;DHT22;5546;48.714;8.738;2022-11-04T01:21:43;13.50;99.90
10986;DHT22;5546;48.714;8.738;2022-11-04T01:24:09;13.60;99.80
10986;DHT22;5546;48.714;8.738;2022-11-04T01:26:35;13.30;99.90
10986;DHT22;5546;48.714;8.738;2022-11-04T01:29:00;13.40;99.90
10986;DHT22;5546;48.714;8.738;2022-11-04T01:31:29;13.40;99.90
10986;DHT22;5546;48.714;8.738;2022-11-04T01:33:55;13.70;99.30
10986;DHT22;5546;48.714;8.738;2022-11-04T01:36:24;13.70;99.50
10986;DHT22;5546;48.714;8.738;2022-11-04T01:38:50;13.50;99.70
10986;DHT22;5546;48.714;8.738;2022-11-04T01:41:30;13.50;99.50
10986;DHT22;5546;48.714;8.738;2022-11-04T01:44:01;13.20;99.90
10986;DHT22;5546;48.714;8.738;2022-11-04T01:46:32;13.40;99.60
10986;DHT22;5546;48.714;8.738;2022-11-04T01:49:12;13.30;99.80
10986;DHT22;5546;48.714;8.738;2022-11-04T01:51:44;13.30;99.70
10986;DHT22;5546;48.714;8.738;2022-11-04T01:54:11;13.60;99.70
10986;DHT22;5546;48.714;8.738;2022-11-04T01:56:37;13.10;99.80
10986;DHT22;5546;48.714;8.738;2022-11-04T01:59:11;13.20;99.30
10986;DHT22;5546;48.714;8.738;2022-11-04T02:01:37;13.20;99.10
10986;DHT22;5546;48.714;8.738;2022-11-04T02:04:03;13.00;99.20
10986;DHT22;5546;48.714;8.738;2022-11-04T02:06:48;13.10;99.10
10986;DHT22;5546;48.714;8.738;2022-11-04T02:09:16;13.00;99.30
10986;DHT22;5546;48.714;8.738;2022-11-04T02:11:43;12.90;99.50
10986;DHT22;5546;48.714;8.738;2022-11-04T02:14:27;12.90;99.20
10986;DHT22;5546;48.714;8.738;2022-11-04T02:16:59;12.80;99.40
10986;DHT22;5546;48.714;8.738;2022-11-04T02:25:13;12.20;99.60
10986;DHT22;5546;48.714;8.738;2022-11-04T02:30:19;12.40;99.60
10986;DHT22;5546;48.714;8.738;2022-11-04T02:32:58;12.40;99.80
10986;DHT22;5546;48.714;8.738;2022-11-04T02:38:20;12.40;99.60
10986;DHT22;5546;48.714;8.738;2022-11-04T02:49:01;12.40;99.70
10986;DHT22;5546;48.714;8.738;2022-11-04T02:51:38;12.20;99.80
10986;DHT22;5546;48.714;8.738;2022-11-04T02:56:41;12.30;99.50
10986;DHT22;5546;48.714;8.738;2022-11-04T02:59:14;12.40;99.80
10986;DHT22;5546;48.714;8.738;2022-11-04T03:01:44;12.50;99.50
10986;DHT22;5546;48.714;8.738;2022-11-04T03:04:14;12.40;99.70
10986;DHT22;5546;48.714;8.738;2022-11-04T03:06:41;12.30;99.80
10986;DHT22;5546;48.714;8.738;2022-11-04T03:09:09;12.40;99.40
10986;DHT22;5546;48.714;8.738;2022-11-04T03:11:36;12.50;99.20
10986;DHT22;5546;48.714;8.738;2022-11-04T03:14:09;12.50;99.10
10986;DHT22;5546;48.714;8.738;2022-11-04T03:16:39;12.20;99.50
10986;DHT22;5546;48.714;8.738;2022-11-04T03:21:42;12.00;99.60
10986;DHT22;5546;48.714;8.738;2022-11-04T03:24:10;12.20;99.20
10986;DHT22;5546;48.714;8.738;2022-11-04T03:26:43;12.20;99.40
10986;DHT22;5546;48.714;8.738;2022-11-04T03:29:26;12.20;99.20
10986;DHT22;5546;48.714;8.738;2022-11-04T03:31:57;11.90;99.40
10986;DHT22;5546;48.714;8.738;2022-11-04T03:34:24;11.80;99.60
10986;DHT22;5546;48.714;8.738;2022-11-04T03:36:50;11.80;99.90
10986;DHT22;5546;48.714;8.738;2022-11-04T03:39:16;11.80;99.80
10986;DHT22;5546;48.714;8.738;2022-11-04T03:41:50;11.90;99.90
10986;DHT22;5546;48.714;8.738;2022-11-04T03:44:16;11.90;99.30
10986;DHT22;5546;48.714;8.738;2022-11-04T03:46:42;11.80;99.70
10986;DHT22;5546;48.714;8.738;2022-11-04T03:49:08;12.00;99.50
10986;DHT22;5546;48.714;8.738;2022-11-04T03:51:35;11.90;99.00
10986;DHT22;5546;48.714;8.738;2022-11-04T03:54:00;11.80;99.40
10986;DHT22;5546;48.714;8.738;2022-11-04T04:00:08;11.70;99.50
10986;DHT22;5546;48.714;8.738;2022-11-04T04:02:46;11.80;99.60
10986;DHT22;5546;48.714;8.738;2022-11-04T04:05:38;11.60;99.50
10986;DHT22;5546;48.714;8.738;2022-11-04T04:08:25;11.60;99.70
10986;DHT22;5546;48.714;8.738;2022-11-04T04:11:20;11.40;99.90
10986;DHT22;5546;48.714;8.738;2022-11-04T04:14:00;11.60;99.80
10986;DHT22;5546;48.714;8.738;2022-11-04T04:16:37;11.20;99.90
10986;DHT22;5546;48.714;8.738;2022-11-04T04:19:11;11.30;99.90
10986;DHT22;5546;48.714;8.738;2022-11-04T04:21:46;11.30;99.90
10986;DHT22;5546;48.714;8.738;2022-11-04T04:24:16;11.60;99.50
10986;DHT22;5546;48.714;8.738;2022-11-04T04:27:01;11.50;99.70
10986;DHT22;5546;48.714;8.738;2022-11-04T04:29:46;11.40;99.90
10986;DHT22;5546;48.714;8.738;2022-11-04T04:32:13;11.50;99.90
10986;DHT22;5546;48.714;8.738;2022-11-04T04:34:40;11.80;99.30
10986;DHT22;5546;48.714;8.738;2022-11-04T04:37:13;11.70;99.20
10986;DHT22;5546;48.714;8.738;2022-11-04T04:39:52;11.80;99.20
10986;DHT22;5546;48.714;8.738;2022-11-04T04:42:37;11.80;99.20
10986;DHT22;5546;48.714;8.738;2022-11-04T04:45:30;11.50;99.80
10986;DHT22;5546;48.714;8.738;2022-11-04T04:47:56;11.50;99.40
10986;DHT22;5546;48.714;8.738;2022-11-04T04:50:26;11.50;99.70
10986;DHT22;5546;48.714;8.738;2022-11-04T04:52:53;11.50;99.50
10986;DHT22;5546;48.714;8.738;2022-11-04T04:55:21;11.60;99.40
10986;DHT22;5546;48.714;8.738;2022-11-04T04:57:46;11.50;99.30
10986;DHT22;5546;48.714;8.738;2022-11-04T05:00:15;11.40;99.30
10986;DHT22;5546;48.714;8.738;2022-11-04T05:02:41;11.30;99.50
10986;DHT22;5546;48.714;8.738;2022-11-04T05:05:08;11.30;99.50
10986;DHT22;5546;48.714;8.738;2022-11-04T05:07:33;11.50;99.30
10986;DHT22;5546;48.714;8.738;2022-11-04T05:09:59;11.40;99.40
10986;DHT22;5546;48.714;8.738;2022-11-04T05:12:25;11.30;99.10
10986;DHT22;5546;48.714;8.738;2022-11-04T05:15:11;11.40;99.30
10986;DHT22;5546;48.714;8.738;2022-11-04T05:17:36;11.10;99.80
10986;DHT22;5546;48.714;8.738;2022-11-04T05:20:02;11.10;99.30
10986;DHT22;5546;48.714;8.738;2022-11-04T05:22:27;11.20;99.00
10986;DHT22;5546;48.714;8.738;2022-11-04T05:24:53;11.20;99.20
10986;DHT22;5546;48.714;8.738;2022-11-04T05:27:18;11.20;99.40
10986;DHT22;5546;48.714;8.738;2022-11-04T05:29:44;10.80;99.70
10986;DHT22;5546;48.714;8.738;2022-11-04T05:32:09;11.00;99.70
10986;DHT22;5546;48.714;8.738;2022-11-04T05:34:35;11.10;99.40
10986;DHT22;5546;48.714;8.738;2022-11-04T05:37:00;11.10;99.40
10986;DHT22;5546;48.714;8.738;2022-11-04T05:39:26;11.30;99.60
10986;DHT22;5546;48.714;8.738;2022-11-04T05:41:52;11.10;99.30
10986;DHT22;5546;48.714;8.738;2022-11-04T05:44:17;11.00;99.60
10986;DHT22;5546;48.714;8.738;2022-11-04T05:46:43;11.00;99.40
10986;DHT22;5546;48.714;8.738;2022-11-04T05:49:08;11.10;99.70
10986;DHT22;5546;48.714;8.738;2022-11-04T05:51:34;11.10;99.10
10986;DHT22;5546;48.714;8.738;2022-11-04T05:54:00;11.10;99.40
10986;DHT22;5546;48.714;8.738;2022-11-04T05:56:26;11.20;99.20
10986;DHT22;5546;48.714;8.738;2022-11-04T05:58:51;11.20;99.20
10986;DHT22;5546;48.714;8.738;2022-11-04T06:01:33;11.30;98.60
10986;DHT22;5546;48.714;8.738;2022-11-04T06:03:59;11.30;99.00
10986;DHT22;5546;48.714;8.738;2022-11-04T06:06:27;11.40;98.70
10986;DHT22;5546;48.714;8.738;2022-11-04T06:08:53;11.40;98.90
10986;DHT22;5546;48.714;8.738;2022-11-04T06:11:20;11.30;98.90
10986;DHT22;5546;48.714;8.738;2022-11-04T06:13:45;11.30;99.00
10986;DHT22;5546;48.714;8.738;2022-11-04T06:16:11;11.40;98.30
10986;DHT22;5546;48.714;8.738;2022-11-04T06:18:36;11.40;98.60
10986;DHT22;5546;48.714;8.738;2022-11-04T06:21:07;11.30;98.50
10986;DHT22;5546;48.714;8.738;2022-11-04T06:23:33;11.10;98.90
10986;DHT22;5546;48.714;8.738;2022-11-04T06:25:58;11.10;99.00
10986;DHT22;5546;48.714;8.738;2022-11-04T06:28:24;11.00;99.20
10986;DHT22;5546;48.714;8.738;2022-11-04T06:30:49;11.10;99.30
10986;DHT22;5546;48.714;8.738;2022-11-04T06:33:15;11.20;99.10
10986;DHT22;5546;48.714;8.738;2022-11-04T06:35:40;11.30;99.10
10986;DHT22;5546;48.714;8.738;2022-11-04T06:38:06;11.10;99.30
10986;DHT22;5546;48.714;8.738;2022-11-04T06:40:31;11.00;99.50
10986;DHT22;5546;48.714;8.738;2022-11-04T06:42:57;11.30;98.90
10986;DHT22;5546;48.714;8.738;2022-11-04T06:45:22;11.20;99.20
10986;DHT22;5546;48.714;8.738;2022-11-04T06:47:48;11.40;99.10
10986;DHT22;5546;48.714;8.738;2022-11-04T06:50:13;11.50;98.80
10986;DHT22;5546;48.714;8.738;2022-11-04T06:52:39;11.30;98.90
10986;DHT22;5546;48.714;8.738;2022-11-04T06:55:05;11.20;98.70
10986;DHT22;5546;48.714;8.738;2022-11-04T06:57:31;11.20;99.00
10986;DHT22;5546;48.714;8.738;2022-11-04T06:59:57;11.20;99.20
10986;DHT22;5546;48.714;8.738;2022-11-04T07:02:22;11.20;99.40
10986;DHT22;5546;48.714;8.738;2022-11-04T07:04:48;10.90;99.50
10986;DHT22;5546;48.714;8.738;2022-11-04T07:07:13;11.10;99.20
10986;DHT22;5546;48.714;8.738;2022-11-04T07:09:39;11.10;99.40
10986;DHT22;5546;48.714;8.738;2022-11-04T07:12:04;11.20;99.30
10986;DHT22;5546;48.714;8.738;2022-11-04T07:14:30;11.20;99.00
10986;DHT22;5546;48.714;8.738;2022-11-04T07:16:55;11.10;99.00
10986;DHT22;5546;48.714;8.738;2022-11-04T07:19:21;11.40;98.70
10986;DHT22;5546;48.714;8.738;2022-11-04T07:21:46;10.90;99.10
10986;DHT22;5546;48.714;8.738;2022-11-04T07:24:12;11.00;99.50
10986;DHT22;5546;48.714;8.738;2022-11-04T07:26:37;10.80;99.70
10986;DHT22;5546;48.714;8.738;2022-11-04T07:29:03;10.90;99.90
10986;DHT22;5546;48.714;8.738;2022-11-04T07:31:30;11.10;99.90
10986;DHT22;5546;48.714;8.738;2022-11-04T07:33:56;11.00;99.60
10986;DHT22;5546;48.714;8.738;2022-11-04T07:36:21;10.90;99.90
10986;DHT22;5546;48.714;8.738;2022-11-04T07:38:47;11.40;99.70
10986;DHT22;5546;48.714;8.738;2022-11-04T07:41:13;11.50;99.10
10986;DHT22;5546;48.714;8.738;2022-11-04T07:46:10;12.10;98.30
10986;DHT22;5546;48.714;8.738;2022-11-04T07:48:36;12.10;98.60
10986;DHT22;5546;48.714;8.738;2022-11-04T07:51:04;12.40;97.80
10986;DHT22;5546;48.714;8.738;2022-11-04T07:53:30;12.00;97.40
10986;DHT22;5546;48.714;8.738;2022-11-04T07:55:57;12.00;97.70
10986;DHT22;5546;48.714;8.738;2022-11-04T07:58:23;11.20;99.10
10986;DHT22;5546;48.714;8.738;2022-11-04T08:00:50;11.30;99.30
10986;DHT22;5546;48.714;8.738;2022-11-04T08:03:15;11.30;99.50
10986;DHT22;5546;48.714;8.738;2022-11-04T08:05:41;11.50;98.10
10986;DHT22;5546;48.714;8.738;2022-11-04T08:08:06;11.70;98.50
10986;DHT22;5546;48.714;8.738;2022-11-04T08:10:33;11.60;99.10
10986;DHT22;5546;48.714;8.738;2022-11-04T08:12:59;11.60;98.90
10986;DHT22;5546;48.714;8.738;2022-11-04T08:15:24;11.50;99.00
10986;DHT22;5546;48.714;8.738;2022-11-04T08:17:49;11.30;99.20
10986;DHT22;5546;48.714;8.738;2022-11-04T08:20:15;11.40;99.00
10986;DHT22;5546;48.714;8.738;2022-11-04T08:22:41;11.20;99.50
10986;DHT22;5546;48.714;8.738;2022-11-04T08:25:06;11.50;99.70
10986;DHT22;5546;48.714;8.738;2022-11-04T08:27:33;11.50;99.90
10986;DHT22;5546;48.714;8.738;2022-11-04T08:29:58;12.00;99.40
10986;DHT22;5546;48.714;8.738;2022-11-04T08:32:24;12.50;98.50
10986;DHT22;5546;48.714;8.738;2022-11-04T08:34:49;12.20;98.00
10986;DHT22;5546;48.714;8.738;2022-11-04T08:37:16;11.70;98.40
10986;DHT22;5546;48.714;8.738;2022-11-04T08:39:42;11.70;98.70
10986;DHT22;5546;48.714;8.738;2022-11-04T08:42:08;11.30;99.50
10986;DHT22;5546;48.714;8.738;2022-11-04T08:44:34;11.40;99.50
10986;DHT22;5546;48.714;8.738;2022-11-04T08:46:59;11.90;98.80
10986;DHT22;5546;48.714;8.738;2022-11-04T08:49:25;11.90;99.10
10986;DHT22;5546;48.714;8.738;2022-11-04T08:51:51;12.00;99.20
10986;DHT22;5546;48.714;8.738;2022-11-04T08:54:25;12.40;98.60
10986;DHT22;5546;48.714;8.738;2022-11-04T08:56:51;12.90;97.20
10986;DHT22;5546;48.714;8.738;2022-11-04T08:59:17;12.90;97.30
10986;DHT22;5546;48.714;8.738;2022-11-04T09:01:42;12.90;97.50
10986;DHT22;5546;48.714;8.738;2022-11-04T09:04:10;13.10;97.50
10986;DHT22;5546;48.714;8.738;2022-11-04T09:06:38;13.40;97.00
10986;DHT22;5546;48.714;8.738;2022-11-04T09:09:06;14.00;96.60
10986;DHT22;5546;48.714;8.738;2022-11-04T09:11:33;14.00;95.30
10986;DHT22;5546;48.714;8.738;2022-11-04T09:14:01;14.00;95.60
10986;DHT22;5546;48.714;8.738;2022-11-04T09:16:29;13.00;96.70
10986;DHT22;5546;48.714;8.738;2022-11-04T09:18:56;12.90;97.00
10986;DHT22;5546;48.714;8.738;2022-11-04T09:21:22;13.00;96.80
10986;DHT22;5546;48.714;8.738;2022-11-04T09:23:47;12.80;97.20
10986;DHT22;5546;48.714;8.738;2022-11-04T09:26:14;12.40;97.60
10986;DHT22;5546;48.714;8.738;2022-11-04T09:28:40;12.50;98.20
10986;DHT22;5546;48.714;8.738;2022-11-04T09:31:17;12.50;98.30
10986;DHT22;5546;48.714;8.738;2022-11-04T09:33:43;12.70;97.70
10986;DHT22;5546;48.714;8.738;2022-11-04T09:36:10;12.80;97.40
10986;DHT22;5546;48.714;8.738;2022-11-04T09:38:40;13.00;97.50
10986;DHT22;5546;48.714;8.738;2022-11-04T09:44:24;13.50;96.90
10986;DHT22;5546;48.714;8.738;2022-11-04T09:46:53;13.90;96.30
10986;DHT22;5546;48.714;8.738;2022-11-04T09:49:23;13.90;96.00
10986;DHT22;5546;48.714;8.738;2022-11-04T09:51:51;14.10;96.10
10986;DHT22;5546;48.714;8.738;2022-11-04T09:54:25;14.30;95.40
10986;DHT22;5546;48.714;8.738;2022-11-04T09:56:53;14.20;95.40
10986;DHT22;5546;48.714;8.738;2022-11-04T09:59:29;14.50;95.60
10986;DHT22;5546;48.714;8.738;2022-11-04T10:05:10;14.90;94.10
10986;DHT22;5546;48.714;8.738;2022-11-04T10:10:50;16.30;92.50
10986;DHT22;5546;48.714;8.738;2022-11-04T10:16:44;16.90;90.40
10986;DHT22;5546;48.714;8.738;2022-11-04T10:25:24;17.20;89.00
10986;DHT22;5546;48.714;8.738;2022-11-04T10:27:50;16.30;91.00
10986;DHT22;5546;48.714;8.738;2022-11-04T10:30:24;15.60;91.50
10986;DHT22;5546;48.714;8.738;2022-11-04T10:33:01;15.50;91.30
10986;DHT22;5546;48.714;8.738;2022-11-04T10:35:35;15.10;92.20
10986;DHT22;5546;48.714;8.738;2022-11-04T10:40:39;15.70;91.20
10986;DHT22;5546;48.714;8.738;2022-11-04T10:43:09;15.00;91.80
10986;DHT22;5546;48.714;8.738;2022-11-04T10:46:00;14.90;92.10
10986;DHT22;5546;48.714;8.738;2022-11-04T10:48:33;14.30;93.00
10986;DHT22;5546;48.714;8.738;2022-11-04T10:51:01;13.80;94.00
10986;DHT22;5546;48.714;8.738;2022-11-04T10:53:29;13.80;94.20
10986;DHT22;5546;48.714;8.738;2022-11-04T10:58:48;14.00;94.20
10986;DHT22;5546;48.714;8.738;2022-11-04T11:01:41;14.60;93.70
10986;DHT22;5546;48.714;8.738;2022-11-04T11:04:24;14.50;93.50
10986;DHT22;5546;48.714;8.738;2022-11-04T11:06:52;14.50;93.60
10986;DHT22;5546;48.714;8.738;2022-11-04T11:09:21;14.50;94.00
10986;DHT22;5546;48.714;8.738;2022-11-04T11:11:51;14.40;93.70
10986;DHT22;5546;48.714;8.738;2022-11-04T11:14:30;14.50;93.50
10986;DHT22;5546;48.714;8.738;2022-11-04T11:17:15;14.60;93.00
10986;DHT22;5546;48.714;8.738;2022-11-04T11:19:55;14.60;93.20
10986;DHT22;5546;48.714;8.738;2022-11-04T11:25:25;15.50;92.70
10986;DHT22;5546;48.714;8.738;2022-11-04T11:28:04;16.50;90.80
10986;DHT22;5546;48.714;8.738;2022-11-04T11:35:47;17.50;87.20
10986;DHT22;5546;48.714;8.738;2022-11-04T11:38:23;17.00;89.30
10986;DHT22;5546;48.714;8.738;2022-11-04T11:40:50;16.60;89.30
10986;DHT22;5546;48.714;8.738;2022-11-04T11:43:26;16.90;88.20
10986;DHT22;5546;48.714;8.738;2022-11-04T11:45:52;17.00;88.90
10986;DHT22;5546;48.714;8.738;2022-11-04T11:50:59;16.70;89.70
10986;DHT22;5546;48.714;8.738;2022-11-04T11:53:27;17.80;87.00
10986;DHT22;5546;48.714;8.738;2022-11-04T11:58:29;19.90;80.20
10986;DHT22;5546;48.714;8.738;2022-11-04T12:01:05;19.80;79.20
10986;DHT22;5546;48.714;8.738;2022-11-04T12:03:38;19.40;80.80
10986;DHT22;5546;48.714;8.738;2022-11-04T12:12:18;17.90;82.80
10986;DHT22;5546;48.714;8.738;2022-11-04T12:17:59;17.90;84.70
10986;DHT22;5546;48.714;8.738;2022-11-04T12:20:44;17.90;83.20
10986;DHT22;5546;48.714;8.738;2022-11-04T12:26:17;16.70;86.30
10986;DHT22;5546;48.714;8.738;2022-11-04T12:31:33;15.90;88.00
10986;DHT22;5546;48.714;8.738;2022-11-04T12:36:44;16.30;87.60
10986;DHT22;5546;48.714;8.738;2022-11-04T12:42:33;16.60;83.70
10986;DHT22;5546;48.714;8.738;2022-11-04T12:47:46;16.60;84.70
10986;DHT22;5546;48.714;8.738;2022-11-04T12:50:36;16.10;86.20
10986;DHT22;5546;48.714;8.738;2022-11-04T12:53:15;15.80;88.70
10986;DHT22;5546;48.714;8.738;2022-11-04T12:56:19;16.10;89.80
10986;DHT22;5546;48.714;8.738;2022-11-04T12:58:57;15.30;89.10
10986;DHT22;5546;48.714;8.738;2022-11-04T13:01:38;14.90;91.40
10986;DHT22;5546;48.714;8.738;2022-11-04T13:04:09;14.80;93.00
10986;DHT22;5546;48.714;8.738;2022-11-04T13:06:55;14.50;93.40
10986;DHT22;5546;48.714;8.738;2022-11-04T13:09:37;14.50;93.90
10986;DHT22;5546;48.714;8.738;2022-11-04T13:12:26;14.40;94.40
10986;DHT22;5546;48.714;8.738;2022-11-04T13:15:04;14.50;94.80
10986;DHT22;5546;48.714;8.738;2022-11-04T13:17:34;14.70;94.50
10986;DHT22;5546;48.714;8.738;2022-11-04T13:20:16;15.20;94.10
10986;DHT22;5546;48.714;8.738;2022-11-04T13:22:47;15.10;94.40
10986;DHT22;5546;48.714;8.738;2022-11-04T13:25:14;15.20;94.40
10986;DHT22;5546;48.714;8.738;2022-11-04T13:27:44;15.20;94.10
10986;DHT22;5546;48.714;8.738;2022-11-04T13:33:37;15.40;93.50
10986;DHT22;5546;48.714;8.738;2022-11-04T13:36:06;15.40;92.40
10986;DHT22;5546;48.714;8.738;2022-11-04T13:38:46;15.70;93.40
10986;DHT22;5546;48.714;8.738;2022-11-04T13:43:45;15.40;93.70
10986;DHT22;5546;48.714;8.738;2022-11-04T13:46:20;15.30;93.40
10986;DHT22;5546;48.714;8.738;2022-11-04T13:49:01;15.20;93.40
10986;DHT22;5546;48.714;8.738;2022-11-04T13:51:42;15.10;94.30
10986;DHT22;5546;48.714;8.738;2022-11-04T13:54:32;15.20;94.70
10986;DHT22;5546;48.714;8.738;2022-11-04T13:57:05;15.10;95.50
10986;DHT22;5546;48.714;8.738;2022-11-04T13:59:32;15.20;94.40
10986;DHT22;5546;48.714;8.738;2022-11-04T14:04:36;14.70;94.70
10986;DHT22;5546;48.714;8.738;2022-11-04T14:07:04;14.50;94.60
10986;DHT22;5546;48.714;8.738;2022-11-04T14:09:50;14.50;94.90
10986;DHT22;5546;48.714;8.738;2022-11-04T14:12:24;14.40;96.00
10986;DHT22;5546;48.714;8.738;2022-11-04T14:14:52;14.40;95.40
10986;DHT22;5546;48.714;8.738;2022-11-04T14:23:00;14.50;95.80
10986;DHT22;5546;48.714;8.738;2022-11-04T14:30:51;14.70;96.80
10986;DHT22;5546;48.714;8.738;2022-11-04T14:33:22;14.70;96.30
10986;DHT22;5546;48.714;8.738;2022-11-04T14:35:52;14.60;96.50
10986;DHT22;5546;48.714;8.738;2022-11-04T14:38:29;14.60;96.60
10986;DHT22;5546;48.714;8.738;2022-11-04T14:41:13;14.70;96.70
10986;DHT22;5546;48.714;8.738;2022-11-04T14:43:44;14.90;96.30
10986;DHT22;5546;48.714;8.738;2022-11-04T14:46:16;14.80;96.50
10986;DHT22;5546;48.714;8.738;2022-11-04T14:48:45;14.50;96.80
10986;DHT22;5546;48.714;8.738;2022-11-04T14:51:31;14.50;96.90
10986;DHT22;5546;48.714;8.738;2022-11-04T14:54:20;14.30;97.50
10986;DHT22;5546;48.714;8.738;2022-11-04T14:56:47;14.40;97.70
10986;DHT22;5546;48.714;8.738;2022-11-04T14:59:26;14.50;97.60
10986;DHT22;5546;48.714;8.738;2022-11-04T15:01:54;14.80;96.70
10986;DHT22;5546;48.714;8.738;2022-11-04T15:06:53;14.20;97.30
10986;DHT22;5546;48.714;8.738;2022-11-04T15:09:22;14.20;97.70
10986;DHT22;5546;48.714;8.738;2022-11-04T15:11:48;14.20;97.70
10986;DHT22;5546;48.714;8.738;2022-11-04T15:14:35;14.40;97.30
10986;DHT22;5546;48.714;8.738;2022-11-04T15:17:01;14.20;97.70
10986;DHT22;5546;48.714;8.738;2022-11-04T15:19:33;14.30;97.60
10986;DHT22;5546;48.714;8.738;2022-11-04T15:22:01;14.40;97.50
10986;DHT22;5546;48.714;8.738;2022-11-04T15:24:27;14.40;97.60
10986;DHT22;5546;48.714;8.738;2022-11-04T15:26:58;14.30;97.70
10986;DHT22;5546;48.714;8.738;2022-11-04T15:29:25;14.00;98.40
10986;DHT22;5546;48.714;8.738;2022-11-04T15:31:57;14.30;98.10
10986;DHT22;5546;48.714;8.738;2022-11-04T15:34:24;14.30;98.00
10986;DHT22;5546;48.714;8.738;2022-11-04T15:36:51;14.40;97.70
10986;DHT22;5546;48.714;8.738;2022-11-04T15:39:21;14.30;97.90
10986;DHT22;5546;48.714;8.738;2022-11-04T15:41:51;13.90;98.50
10986;DHT22;5546;48.714;8.738;2022-11-04T15:44:37;13.90;98.60
10986;DHT22;5546;48.714;8.738;2022-11-04T15:47:21;13.50;99.20
10986;DHT22;5546;48.714;8.738;2022-11-04T15:49:49;13.50;99.50
10986;DHT22;5546;48.714;8.738;2022-11-04T15:52:26;13.70;99.60
10986;DHT22;5546;48.714;8.738;2022-11-04T15:54:53;13.90;99.00
10986;DHT22;5546;48.714;8.738;2022-11-04T15:57:37;13.80;99.00
10986;DHT22;5546;48.714;8.738;2022-11-04T16:02:48;14.00;98.40
10986;DHT22;5546;48.714;8.738;2022-11-04T16:07:45;13.80;98.60
10986;DHT22;5546;48.714;8.738;2022-11-04T16:12:46;14.10;98.50
10986;DHT22;5546;48.714;8.738;2022-11-04T16:17:57;13.80;98.80
10986;DHT22;5546;48.714;8.738;2022-11-04T16:20:22;13.60;98.60
10986;DHT22;5546;48.714;8.738;2022-11-04T16:22:55;13.50;98.70
10986;DHT22;5546;48.714;8.738;2022-11-04T16:25:22;13.30;99.30
10986;DHT22;5546;48.714;8.738;2022-11-04T16:27:48;13.40;99.60
10986;DHT22;5546;48.714;8.738;2022-11-04T16:30:19;13.60;99.00
10986;DHT22;5546;48.714;8.738;2022-11-04T16:32:46;13.80;98.90
10986;DHT22;5546;48.714;8.738;2022-11-04T16:35:16;13.50;99.10
10986;DHT22;5546;48.714;8.738;2022-11-04T16:37:42;13.60;99.10
10986;DHT22;5546;48.714;8.738;2022-11-04T16:40:08;13.30;99.40
10986;DHT22;5546;48.714;8.738;2022-11-04T16:42:33;13.40;99.20
10986;DHT22;5546;48.714;8.738;2022-11-04T16:45:02;13.70;98.10
10986;DHT22;5546;48.714;8.738;2022-11-04T16:47:28;13.60;98.30
10986;DHT22;5546;48.714;8.738;2022-11-04T16:50:00;13.50;98.50
10986;DHT22;5546;48.714;8.738;2022-11-04T16:52:26;13.40;99.10
10986;DHT22;5546;48.714;8.738;2022-11-04T16:54:53;13.40;99.20
10986;DHT22;5546;48.714;8.738;2022-11-04T16:57:21;13.30;99.00
10986;DHT22;5546;48.714;8.738;2022-11-04T16:59:47;13.30;99.20
10986;DHT22;5546;48.714;8.738;2022-11-04T17:02:22;13.30;99.10
10986;DHT22;5546;48.714;8.738;2022-11-04T17:04:49;13.30;99.30
10986;DHT22;5546;48.714;8.738;2022-11-04T17:07:15;13.40;99.20
10986;DHT22;5546;48.714;8.738;2022-11-04T17:09:40;13.50;98.70
10986;DHT22;5546;48.714;8.738;2022-11-04T17:12:06;13.60;98.40
10986;DHT22;5546;48.714;8.738;2022-11-04T17:14:32;13.60;98.70
10986;DHT22;5546;48.714;8.738;2022-11-04T17:16:57;13.60;98.20
10986;DHT22;5546;48.714;8.738;2022-11-04T17:19:23;13.40;98.50
10986;DHT22;5546;48.714;8.738;2022-11-04T17:21:48;13.40;98.70
10986;DHT22;5546;48.714;8.738;2022-11-04T17:24:14;13.30;98.60
10986;DHT22;5546;48.714;8.738;2022-11-04T17:26:40;13.10;98.40
10986;DHT22;5546;48.714;8.738;2022-11-04T17:29:05;13.10;98.00
10986;DHT22;5546;48.714;8.738;2022-11-04T17:31:31;13.10;98.20
10986;DHT22;5546;48.714;8.738;2022-11-04T17:33:56;12.80;98.00
10986;DHT22;5546;48.714;8.738;2022-11-04T17:36:22;12.80;98.30
10986;DHT22;5546;48.714;8.738;2022-11-04T17:38:48;13.00;98.20
10986;DHT22;5546;48.714;8.738;2022-11-04T17:41:13;12.60;98.10
10986;DHT22;5546;48.714;8.738;2022-11-04T17:43:57;12.50;98.40
10986;DHT22;5546;48.714;8.738;2022-11-04T17:46:30;12.50;98.50
10986;DHT22;5546;48.714;8.738;2022-11-04T17:49:20;12.50;98.60
10986;DHT22;5546;48.714;8.738;2022-11-04T17:51:50;12.30;98.60
10986;DHT22;5546;48.714;8.738;2022-11-04T17:54:18;12.00;98.70
10986;DHT22;5546;48.714;8.738;2022-11-04T17:56:43;12.00;99.00
10986;DHT22;5546;48.714;8.738;2022-11-04T17:59:10;12.40;98.50
10986;DHT22;5546;48.714;8.738;2022-11-04T18:01:36;12.40;98.40
10986;DHT22;5546;48.714;8.738;2022-11-04T18:04:04;12.30;98.40
10986;DHT22;5546;48.714;8.738;2022-11-04T18:06:31;12.10;98.50
10986;DHT22;5546;48.714;8.738;2022-11-04T18:08:57;11.90;98.70
10986;DHT22;5546;48.714;8.738;2022-11-04T18:11:27;11.80;98.90